Time;durP1;ratioP1;P1;durP2;ratioP2;P2;SDS_P1;SDS_P2;PMS_P1;PMS_P2;Temp;Humidity;BMP_temperature;BMP_pressure;BME280_temperature;BME280_humidity;BME280_pressure;Samples;Min_cycle;Max_cycle;Signal;HPM_P1;HPM_P2
2021/03/10 00:01:58;;;;;;;43.55;27.95;;;;;;;0.86;60.03;94549.08;1729493;83;21079;-59
2021/03/10 00:04:26;;;;;;;56.83;32.60;;;;;;;0.88;60.22;94547.31;1729523;83;21067;-59
2021/03/10 00:06:56;;;;;;;86.45;44.53;;;;;;;0.98;60.21;94544.58;1729520;83;21079;-60
2021/03/10 00:09:26;;;;;;;67.72;37.83;;;;;;;1.03;59.97;94537.44;1729548;83;21087;-59
2021/03/10 00:11:54;;;;;;;62.27;34.78;;;;;;;1.04;59.97;94536.84;1729556;83;21214;-59
2021/03/10 00:14:22;;;;;;;46.40;28.65;;;;;;;1.09;59.82;94531.80;1729508;83;21150;-59
2021/03/10 00:16:49;;;;;;;37.58;23.73;;;;;;;1.11;59.77;94533.52;1729536;83;21202;-59
2021/03/10 00:19:17;;;;;;;39.88;25.10;;;;;;;1.07;59.78;94530.63;1729531;83;21103;-60
2021/03/10 00:21:45;;;;;;;50.55;29.55;;;;;;;1.05;59.86;94522.13;1729577;83;21087;-60
2021/03/10 00:24:13;;;;;;;42.78;26.07;;;;;;;1.05;59.97;94524.27;1729470;83;21472;-60
2021/03/10 00:26:41;;;;;;;34.67;22.02;;;;;;;1.00;59.99;94523.30;1729461;83;21178;-60
2021/03/10 00:29:10;;;;;;;31.42;21.02;;;;;;;1.09;59.82;94524.23;1729524;83;21170;-60
2021/03/10 00:31:38;;;;;;;35.30;24.47;;;;;;;1.16;59.57;94522.28;1729523;83;21083;-59
2021/03/10 00:34:06;;;;;;;46.98;28.15;;;;;;;1.14;59.37;94523.26;1729550;83;21059;-59
2021/03/10 00:36:35;;;;;;;27.87;20.68;;;;;;;1.12;59.57;94517.46;1703324;83;21127;-60
2021/03/10 00:39:03;;;;;;;37.67;24.60;;;;;;;1.17;59.24;94514.94;1729449;83;21111;-60
2021/03/10 00:41:31;;;;;;;37.25;24.60;;;;;;;1.25;58.90;94521.30;1729544;83;21123;-61
2021/03/10 00:43:59;;;;;;;45.65;27.30;;;;;;;1.27;58.84;94518.95;1729476;81;21467;-60
2021/03/10 00:46:27;;;;;;;35.88;24.15;;;;;;;1.33;58.83;94513.31;1729591;83;21088;-60
2021/03/10 00:48:55;;;;;;;32.17;21.62;;;;;;;1.32;59.00;94508.30;1729459;83;21448;-60
2021/03/10 00:51:23;;;;;;;27.82;20.37;;;;;;;1.36;58.86;94507.09;1729422;83;21142;-60
2021/03/10 00:53:50;;;;;;;26.30;20.17;;;;;;;1.48;58.71;94496.42;1729489;83;21163;-60
2021/03/10 00:56:18;;;;;;;30.37;21.10;;;;;;;1.54;58.43;94496.94;1729497;83;21109;-60
2021/03/10 00:58:50;;;;;;;30.77;23.55;;;;;;;1.47;58.42;94488.11;1729545;83;21098;-60
2021/03/10 01:01:17;;;;;;;27.37;19.45;;;;;;;1.40;58.53;94484.84;1729576;83;21162;-60
2021/03/10 01:03:45;;;;;;;26.48;19.67;;;;;;;1.39;58.34;94483.30;1729387;83;21098;-59
2021/03/10 01:06:13;;;;;;;29.77;18.90;;;;;;;1.38;58.43;94488.53;1729501;83;21079;-59
2021/03/10 01:08:41;;;;;;;26.50;20.00;;;;;;;1.44;58.38;94477.46;1729463;83;21186;-60
2021/03/10 01:11:09;;;;;;;41.53;27.22;;;;;;;1.52;58.28;94472.78;1729531;83;21075;-59
2021/03/10 01:13:38;;;;;;;36.15;23.83;;;;;;;1.53;58.33;94477.78;1729502;83;22218;-59
2021/03/10 01:16:06;;;;;;;33.53;21.87;;;;;;;1.53;58.27;94466.94;1729419;83;21087;-59
2021/03/10 01:18:34;;;;;;;33.63;21.90;;;;;;;1.46;58.40;94457.51;1729584;83;21279;-60
2021/03/10 01:21:02;;;;;;;35.88;23.85;;;;;;;1.47;58.51;94459.65;1729553;83;21138;-60
2021/03/10 01:23:30;;;;;;;32.23;22.10;;;;;;;1.48;58.63;94449.75;1729522;83;21223;-60
2021/03/10 01:25:58;;;;;;;34.08;23.42;;;;;;;1.55;58.44;94454.36;1729439;83;21158;-60
2021/03/10 01:28:26;;;;;;;37.58;25.88;;;;;;;1.57;58.34;94459.58;1729426;83;21076;-59
2021/03/10 01:30:54;;;;;;;40.40;25.95;;;;;;;1.53;58.25;94454.75;1729453;83;21118;-60
2021/03/10 01:33:22;;;;;;;37.30;27.67;;;;;;;1.41;58.45;94449.80;1729465;83;21107;-60
2021/03/10 01:35:51;;;;;;;37.67;24.05;;;;;;;1.28;58.58;94447.95;1725135;81;21139;-59
2021/03/10 01:38:19;;;;;;;34.60;23.87;;;;;;;1.29;58.66;94446.19;1729487;83;21386;-60
2021/03/10 01:40:48;;;;;;;37.78;23.77;;;;;;;1.37;58.54;94440.93;1729411;83;21106;-60
2021/03/10 01:43:17;;;;;;;34.67;22.93;;;;;;;1.41;58.46;94443.59;1729472;83;21080;-59
2021/03/10 01:45:44;;;;;;;32.13;23.40;;;;;;;1.37;58.60;94446.34;1729427;83;21063;-60
2021/03/10 01:48:12;;;;;;;32.90;22.15;;;;;;;1.35;58.98;94436.46;1729182;83;21107;-59
2021/03/10 01:50:41;;;;;;;30.88;21.27;;;;;;;1.41;58.95;94440.32;1697564;84;21166;-60
2021/03/10 01:53:09;;;;;;;33.78;23.12;;;;;;;1.50;59.03;94431.75;1697575;84;21503;-59
2021/03/10 01:55:36;;;;;;;34.25;21.35;;;;;;;1.59;58.64;94435.56;1672915;84;21075;-59
2021/03/10 01:58:05;;;;;;;34.13;23.45;;;;;;;1.64;58.36;94431.63;1697507;84;21218;-60
2021/03/10 02:00:34;;;;;;;40.67;25.02;;;;;;;1.59;58.03;94432.85;1697667;84;21134;-60
2021/03/10 02:03:02;;;;;;;34.55;22.90;;;;;;;1.50;58.46;94433.86;1697617;84;21379;-60
2021/03/10 02:05:30;;;;;;;26.17;19.90;;;;;;;1.51;58.41;94434.05;1697439;84;21175;-60
2021/03/10 02:08:29;;;;;;;30.17;20.77;;;;;;;1.57;58.05;94435.76;1697551;84;21087;-59
2021/03/10 02:11:21;;;;;;;28.12;21.02;;;;;;;1.65;57.65;94432.61;1697574;84;21091;-60
2021/03/10 02:14:13;;;;;;;28.67;20.55;;;;;;;1.67;57.38;94432.22;1697686;84;21206;-60
2021/03/10 02:16:57;;;;;;;27.15;19.67;;;;;;;1.51;57.49;94430.58;1697528;84;21385;-58
2021/03/10 02:19:57;;;;;;;26.45;19.52;;;;;;;1.36;58.14;94425.81;1674714;84;21086;-59
2021/03/10 02:22:42;;;;;;;27.22;18.45;;;;;;;1.38;58.30;94427.57;1697535;84;21053;-59
2021/03/10 02:25:39;;;;;;;31.50;21.55;;;;;;;1.31;58.37;94423.52;1697511;84;21198;-58
2021/03/10 02:28:07;;;;;;;23.87;18.37;;;;;;;1.17;58.82;94422.24;1692216;83;21087;-60
2021/03/10 02:30:41;;;;;;;26.07;18.77;;;;;;;1.10;59.17;94421.54;1697566;84;21171;-60
2021/03/10 02:33:13;;;;;;;28.20;18.50;;;;;;;1.17;59.51;94415.47;1697389;84;21106;-59
2021/03/10 02:35:45;;;;;;;24.95;17.60;;;;;;;1.30;59.42;94427.41;1697751;84;21626;-59
2021/03/10 02:38:16;;;;;;;25.17;18.85;;;;;;;1.36;59.24;94423.10;1674567;84;21146;-60
2021/03/10 02:40:43;;;;;;;31.57;21.20;;;;;;;1.28;59.48;94416.80;1697552;84;21137;-60
2021/03/10 02:43:12;;;;;;;55.00;32.55;;;;;;;1.29;59.66;94419.09;1697532;84;21217;-60
2021/03/10 02:45:41;;;;;;;37.65;23.55;;;;;;;1.25;59.89;94408.87;1674001;84;21130;-60
2021/03/10 02:48:10;;;;;;;39.90;23.92;;;;;;;1.19;60.13;94410.45;1697540;84;21491;-59
2021/03/10 02:50:39;;;;;;;44.50;25.77;;;;;;;1.21;60.26;94417.60;1725407;82;21115;-59
2021/03/10 02:53:08;;;;;;;40.45;25.75;;;;;;;1.17;59.99;94408.70;1703129;83;21091;-60
2021/03/10 02:55:37;;;;;;;35.68;24.20;;;;;;;1.03;60.20;94402.59;1729456;83;21220;-60
2021/03/10 02:58:08;;;;;;;70.25;36.08;;;;;;;0.98;60.20;94407.83;1729401;83;21099;-60
2021/03/10 03:00:38;;;;;;;47.65;27.95;;;;;;;0.92;60.46;94420.25;1729548;83;21663;-58
2021/03/10 03:03:06;;;;;;;39.03;25.80;;;;;;;0.89;60.71;94416.98;1729470;83;21075;-60
2021/03/10 03:05:34;;;;;;;40.03;25.12;;;;;;;0.89;60.96;94412.13;1729441;83;21083;-60
2021/03/10 03:08:05;;;;;;;42.85;25.75;;;;;;;0.91;61.15;94406.52;1729389;83;21225;-60
2021/03/10 03:10:38;;;;;;;;;;;;;;;1.01;61.26;94403.01;1782585;79;21569;-60
2021/03/10 03:13:08;;;;;;;50.15;30.08;;;;;;;1.19;61.01;94408.31;1771866;81;20251;-60
2021/03/10 03:15:36;;;;;;;48.25;28.62;;;;;;;1.19;60.82;94398.27;1790313;80;21155;-59
2021/03/10 03:18:05;;;;;;;44.42;26.97;;;;;;;1.23;60.74;94401.72;1790471;80;21059;-60
2021/03/10 03:20:33;;;;;;;42.58;27.60;;;;;;;1.37;60.38;94400.28;1790503;80;21198;-59
2021/03/10 03:23:05;;;;;;;58.05;35.65;;;;;;;1.49;59.84;94395.73;1790441;80;21487;-60
2021/03/10 03:25:38;;;;;;;57.48;35.30;;;;;;;1.53;59.88;94395.72;1790588;80;21237;-60
2021/03/10 03:28:07;;;;;;;54.10;32.45;;;;;;;1.52;59.68;94400.95;1790592;80;21567;-60
2021/03/10 03:30:38;;;;;;;45.00;28.32;;;;;;;1.50;59.75;94393.81;1790510;80;21388;-60
2021/03/10 03:33:15;;;;;;;40.55;26.02;;;;;;;1.51;59.36;94401.52;1790497;80;21200;-60
2021/03/10 03:35:44;;;;;;;42.55;24.72;;;;;;;1.42;59.31;94395.80;1790409;80;21087;-60
2021/03/10 03:38:12;;;;;;;31.65;22.13;;;;;;;1.26;59.74;94392.80;1790496;80;21063;-60
2021/03/10 03:40:40;;;;;;;53.40;33.48;;;;;;;1.23;59.72;94388.74;1790459;80;21070;-60
2021/03/10 03:43:10;;;;;;;50.92;30.02;;;;;;;1.26;59.88;94390.66;1737379;80;21086;-60
2021/03/10 03:45:39;;;;;;;54.38;29.35;;;;;;;1.35;59.98;94386.34;1790447;79;21359;-60
2021/03/10 03:48:07;;;;;;;54.70;33.15;;;;;;;1.37;59.91;94379.96;1784858;79;21150;-59
2021/03/10 03:50:35;;;;;;;63.28;35.45;;;;;;;1.42;60.06;94378.75;1784053;80;21193;-60
2021/03/10 03:53:03;;;;;;;60.33;34.45;;;;;;;1.47;59.94;94385.88;1803759;79;21064;-60
2021/03/10 03:55:34;;;;;;;62.30;35.68;;;;;;;1.42;60.33;94389.02;1803673;79;21056;-60
2021/03/10 03:58:04;;;;;;;66.07;37.63;;;;;;;1.48;60.53;94378.53;1803791;79;22033;-61
2021/03/10 04:00:32;;;;;;;59.18;35.63;;;;;;;1.59;60.28;94373.78;1803632;79;21100;-60
2021/03/10 04:03:02;;;;;;;47.50;32.25;;;;;;;1.55;60.03;94376.55;1803711;79;21069;-59
2021/03/10 04:05:30;;;;;;;40.65;25.57;;;;;;;1.43;60.11;94378.36;1803629;79;21147;-59
2021/03/10 04:08:00;;;;;;;58.68;33.85;;;;;;;1.26;60.28;94376.54;1801970;79;21112;-60
2021/03/10 04:10:33;;;;;;;51.45;31.77;;;;;;;1.10;60.79;94378.20;1805548;79;22084;-61
2021/03/10 04:13:02;;;;;;;60.60;34.95;;;;;;;1.04;60.89;94379.20;1806728;79;21072;-60
2021/03/10 04:15:32;;;;;;;57.03;32.58;;;;;;;1.03;61.20;94370.88;1806724;79;21043;-60
2021/03/10 04:18:01;;;;;;;53.08;30.92;;;;;;;0.99;61.04;94365.30;1806784;79;21055;-60
2021/03/10 04:20:29;;;;;;;54.50;33.33;;;;;;;0.99;61.25;94372.06;1806763;79;21096;-60
2021/03/10 04:22:57;;;;;;;41.90;25.32;;;;;;;0.98;61.25;94371.28;1806736;79;21359;-60
2021/03/10 04:25:25;;;;;;;39.33;26.02;;;;;;;0.95;61.46;94370.72;1806658;79;21179;-60
2021/03/10 04:27:53;;;;;;;41.83;27.50;;;;;;;1.00;61.29;94373.00;1806741;79;21059;-60
2021/03/10 04:30:23;;;;;;;51.65;32.25;;;;;;;1.03;61.28;94366.83;1806708;79;21076;-60
2021/03/10 04:32:51;;;;;;;48.28;29.85;;;;;;;1.06;61.59;94361.97;1806905;79;21064;-60
2021/03/10 04:35:19;;;;;;;47.08;28.07;;;;;;;1.11;61.29;94358.83;1806735;79;21244;-60
2021/03/10 04:37:48;;;;;;;51.45;29.72;;;;;;;1.09;61.18;94358.45;1806684;79;21155;-60
2021/03/10 04:40:17;;;;;;;42.53;26.77;;;;;;;1.01;61.10;94363.74;1806714;79;21143;-61
2021/03/10 04:42:45;;;;;;;46.35;29.82;;;;;;;0.90;61.54;94360.31;1806842;79;21610;-59
2021/03/10 04:45:14;;;;;;;42.88;29.00;;;;;;;0.92;61.82;94357.22;1806744;79;21045;-60
2021/03/10 04:47:46;;;;;;;48.23;28.98;;;;;;;0.95;61.81;94363.95;1806802;79;22107;-60
2021/03/10 04:50:15;;;;;;;45.87;28.40;;;;;;;0.97;61.84;94357.55;1806969;79;21064;-60
2021/03/10 04:52:44;;;;;;;48.58;29.37;;;;;;;0.99;62.03;94364.70;1806726;79;21060;-60
2021/03/10 04:55:13;;;;;;;86.02;46.55;;;;;;;0.98;61.88;94360.45;1806748;79;21124;-60
2021/03/10 04:57:42;;;;;;;77.40;44.38;;;;;;;0.93;61.93;94356.05;1806861;79;21460;-60
2021/03/10 05:00:11;;;;;;;79.92;44.25;;;;;;;0.93;62.44;94360.11;1806725;79;21447;-60
2021/03/10 05:02:39;;;;;;;50.73;31.75;;;;;;;1.03;62.48;94356.56;1806657;79;21567;-60
2021/03/10 05:05:09;;;;;;;43.85;28.62;;;;;;;1.07;62.10;94355.38;1806778;79;21559;-60
2021/03/10 05:07:38;;;;;;;42.43;27.93;;;;;;;1.04;62.25;94354.82;1806778;79;21143;-60
2021/03/10 05:10:08;;;;;;;38.02;26.10;;;;;;;1.04;62.31;94348.05;1806584;79;21143;-60
2021/03/10 05:12:36;;;;;;;37.60;25.60;;;;;;;1.04;62.36;94350.77;1806727;79;21254;-60
2021/03/10 05:15:06;;;;;;;77.97;43.70;;;;;;;1.06;62.39;94359.83;1806670;79;21071;-60
2021/03/10 05:17:34;;;;;;;71.05;39.90;;;;;;;1.13;62.61;94357.84;1806813;79;21500;-60
2021/03/10 05:20:05;;;;;;;49.40;30.80;;;;;;;1.19;62.12;94357.64;1806736;79;21051;-60
2021/03/10 05:22:33;;;;;;;54.00;34.35;;;;;;;1.27;61.80;94353.70;1806765;79;21488;-60
2021/03/10 05:25:05;;;;;;;62.50;36.58;;;;;;;1.32;61.54;94349.20;1806625;79;22304;-60
2021/03/10 05:27:33;;;;;;;65.37;38.53;;;;;;;1.24;61.46;94346.94;1806734;79;21482;-60
2021/03/10 05:30:01;;;;;;;62.75;38.05;;;;;;;1.07;61.59;94345.90;1806676;79;21044;-60
2021/03/10 05:32:30;;;;;;;67.70;42.90;;;;;;;0.90;61.87;94348.13;1806613;79;21108;-59
2021/03/10 05:34:58;;;;;;;71.07;43.35;;;;;;;0.79;62.27;94346.05;1806692;79;21060;-61
2021/03/10 05:37:26;;;;;;;82.88;48.50;;;;;;;0.79;62.35;94355.52;1806772;79;21441;-60
2021/03/10 05:39:54;;;;;;;81.90;49.75;;;;;;;0.72;62.52;94350.16;1806602;79;21067;-59
2021/03/10 05:42:22;;;;;;;77.35;43.85;;;;;;;0.65;63.00;94350.77;1806648;79;21044;-61
2021/03/10 05:44:52;;;;;;;77.65;47.10;;;;;;;0.74;62.92;94357.89;1806609;79;21152;-60
2021/03/10 05:47:20;;;;;;;88.22;52.88;;;;;;;0.90;62.63;94364.38;1779757;79;21242;-61
2021/03/10 05:49:49;;;;;;;85.07;51.05;;;;;;;1.00;62.34;94362.77;1806691;79;21352;-60
2021/03/10 05:52:20;;;;;;;85.32;53.60;;;;;;;1.00;62.26;94366.83;1806593;79;21104;-61
2021/03/10 05:54:50;;;;;;;85.22;51.70;;;;;;;0.93;62.17;94362.22;1806663;79;21120;-60
2021/03/10 05:57:18;;;;;;;82.75;54.23;;;;;;;0.92;62.39;94359.93;1806651;79;21116;-60
2021/03/10 05:59:46;;;;;;;78.37;50.85;;;;;;;0.95;62.49;94365.90;1806771;79;21159;-60
2021/03/10 06:02:14;;;;;;;79.75;51.70;;;;;;;1.12;62.27;94369.09;1806662;79;21354;-60
2021/03/10 06:04:43;;;;;;;83.33;51.45;;;;;;;1.11;62.01;94360.19;1806527;79;21061;-61
2021/03/10 06:07:21;;;;;;;91.67;55.00;;;;;;;1.00;62.05;94366.23;1806562;79;21044;-61
2021/03/10 06:10:08;;;;;;;72.20;44.50;;;;;;;0.93;62.44;94370.34;1806103;79;21071;-60
2021/03/10 06:12:43;;;;;;;73.87;48.92;;;;;;;0.99;62.34;94372.82;1774711;79;21147;-60
2021/03/10 06:15:13;;;;;;;73.42;47.05;;;;;;;0.95;62.19;94378.84;1803570;79;21189;-60
2021/03/10 06:17:47;;;;;;;74.60;47.53;;;;;;;0.96;62.38;94370.91;1803551;79;21492;-61
2021/03/10 06:20:31;;;;;;;72.15;48.60;;;;;;;0.99;62.31;94376.87;1803529;79;21076;-60
2021/03/10 06:22:58;;;;;;;;;;;;;;;1.01;62.37;94375.92;1806158;79;21080;-60
2021/03/10 06:25:35;;;;;;;70.37;44.60;;;;;;;0.98;62.27;94376.69;1787420;79;20278;-61
2021/03/10 06:28:04;;;;;;;75.72;47.90;;;;;;;0.94;62.26;94376.55;1752909;81;21143;-62
2021/03/10 06:30:43;;;;;;;82.75;50.88;;;;;;;0.89;62.45;94380.43;1764706;81;21529;-59
2021/03/10 06:33:22;;;;;;;83.55;54.45;;;;;;;0.88;62.61;94385.66;1752906;81;21156;-61
2021/03/10 06:35:50;;;;;;;69.75;46.05;;;;;;;0.94;62.64;94380.01;1799699;79;21072;-60
2021/03/10 06:38:19;;;;;;;84.47;50.75;;;;;;;1.02;62.17;94382.09;1773211;79;21169;-60
2021/03/10 06:40:51;;;;;;;79.55;47.83;;;;;;;1.02;62.31;94376.69;1771384;81;22139;-60
2021/03/10 06:43:19;;;;;;;91.65;55.48;;;;;;;1.05;62.21;94378.03;1771235;80;21144;-61
2021/03/10 06:45:47;;;;;;;87.27;53.68;;;;;;;1.09;62.24;94378.77;1789979;78;21119;-60
2021/03/10 06:48:18;;;;;;;76.22;48.38;;;;;;;1.10;62.20;94384.37;1775548;80;21051;-61
2021/03/10 06:50:48;;;;;;;87.97;53.05;;;;;;;0.98;62.47;94388.12;1760448;79;21122;-61
2021/03/10 06:53:16;;;;;;;93.45;54.08;;;;;;;0.96;62.52;94381.73;1754607;80;21348;-61
2021/03/10 06:55:45;;;;;;;107.00;62.15;;;;;;;1.01;62.51;94375.14;1782800;80;21198;-62
2021/03/10 06:58:23;;;;;;;104.27;61.73;;;;;;;1.23;62.33;94388.74;1802170;78;21242;-60
2021/03/10 07:01:01;;;;;;;122.35;69.92;;;;;;;1.41;61.78;94390.19;1789195;78;21179;-60
2021/03/10 07:03:30;;;;;;;111.17;68.80;;;;;;;1.45;61.57;94388.79;1773908;79;37292;-64
2021/03/10 07:05:58;;;;;;;103.90;63.20;;;;;;;1.46;61.36;94382.98;1834109;77;21471;-60
2021/03/10 07:08:27;;;;;;;78.87;50.65;;;;;;;1.59;61.42;94393.55;1801522;79;21159;-60
2021/03/10 07:10:59;;;;;;;92.45;58.00;;;;;;;1.73;61.03;94390.70;1821991;76;21194;-64
2021/03/10 07:13:35;;;;;;;99.65;59.30;;;;;;;1.74;60.62;94390.92;1823161;77;21195;-58
2021/03/10 07:16:06;;;;;;;89.22;56.75;;;;;;;1.69;60.84;94387.86;1829977;76;21502;-61
2021/03/10 07:18:38;;;;;;;91.05;55.90;;;;;;;1.71;60.57;94393.05;1834081;76;21247;-61
2021/03/10 07:21:35;;;;;;;103.38;63.30;;;;;;;1.66;60.74;94402.97;1722517;80;21155;-60
2021/03/10 07:27:53;;;;;;;68.20;44.27;;;;;;;1.70;60.33;94394.22;1707206;80;21091;-56
2021/03/10 07:30:41;;;;;;;39.30;26.80;;;;;;;1.64;60.53;94399.11;1769088;79;21129;-59
2021/03/10 07:33:18;;;;;;;37.30;24.82;;;;;;;1.63;59.62;94389.44;1751105;80;23369;-61
2021/03/10 07:36:02;;;;;;;34.70;26.33;;;;;;;1.70;59.19;94389.40;1774459;80;21193;-61
2021/03/10 07:38:38;;;;;;;36.00;25.55;;;;;;;1.89;58.90;94384.19;1769122;79;21175;-59
2021/03/10 07:41:10;;;;;;;32.40;23.12;;;;;;;2.11;58.63;94384.20;1768232;80;21639;-58
2021/03/10 07:43:46;;;;;;;47.33;28.02;;;;;;;2.20;58.08;94389.91;1761275;79;21118;-58
2021/03/10 07:46:32;;;;;;;35.73;24.72;;;;;;;2.16;57.77;94387.22;1766313;79;21204;-56
2021/03/10 07:49:37;;;;;;;46.85;31.30;;;;;;;2.22;57.86;94391.06;1764699;80;21908;-58
2021/03/10 07:52:15;;;;;;;34.98;25.85;;;;;;;2.29;57.56;94386.16;1773994;80;21201;-59
2021/03/10 07:54:56;;;;;;;46.45;31.42;;;;;;;2.53;57.16;94384.52;1761161;79;21117;-58
2021/03/10 07:57:26;;;;;;;36.03;25.77;;;;;;;2.65;57.02;94387.32;1765142;79;21110;-60
2021/03/10 08:00:00;;;;;;;49.80;30.48;;;;;;;2.62;56.77;94378.03;1755883;80;21214;-59
2021/03/10 08:02:44;;;;;;;45.58;29.60;;;;;;;2.50;56.84;94381.26;1769732;80;21183;-56
2021/03/10 08:05:25;;;;;;;39.75;28.10;;;;;;;2.58;56.67;94377.88;1762840;80;21106;-59
2021/03/10 08:08:10;;;;;;;44.75;28.80;;;;;;;2.66;56.50;94375.28;1768868;80;21230;-59
2021/03/10 08:10:42;;;;;;;60.43;38.50;;;;;;;2.65;56.52;94383.25;1763089;80;21213;-59
2021/03/10 08:13:20;;;;;;;58.63;36.30;;;;;;;2.60;56.47;94376.88;1754630;80;21388;-58
2021/03/10 08:16:04;;;;;;;50.48;34.43;;;;;;;2.64;56.46;94381.11;1839081;77;21117;-58
2021/03/10 08:18:32;;;;;;;57.08;35.05;;;;;;;2.68;56.44;94370.97;1828210;77;21112;-59
2021/03/10 08:21:12;;;;;;;59.58;38.55;;;;;;;2.75;56.56;94370.12;1769542;81;21183;-56
2021/03/10 08:23:40;;;;;;;51.90;33.80;;;;;;;2.77;56.41;94365.05;1774810;80;22269;-60
2021/03/10 08:26:08;;;;;;;59.00;37.58;;;;;;;2.78;56.42;94363.87;1756763;80;21202;-56
2021/03/10 08:28:40;;;;;;;48.80;33.05;;;;;;;2.76;56.37;94368.94;1765546;80;21118;-58
2021/03/10 08:31:10;;;;;;;35.03;25.50;;;;;;;2.84;56.41;94371.16;1829212;76;21576;-58
2021/03/10 08:33:49;;;;;;;35.48;24.52;;;;;;;3.00;56.10;94363.20;1821146;77;21165;-62
2021/03/10 08:36:17;;;;;;;40.20;26.65;;;;;;;3.16;55.91;94370.17;1834076;77;21126;-63
2021/03/10 08:38:45;;;;;;;35.60;23.83;;;;;;;3.19;55.51;94368.56;1825581;76;21185;-58
2021/03/10 08:41:16;;;;;;;45.23;29.27;;;;;;;3.13;55.61;94370.21;1835190;77;21207;-62
2021/03/10 08:43:45;;;;;;;33.20;25.52;;;;;;;3.14;55.30;94364.95;1750286;81;21524;-56
2021/03/10 08:46:12;;;;;;;39.15;27.35;;;;;;;3.03;55.18;94361.63;1831901;78;21476;-65
2021/03/10 08:48:41;;;;;;;34.13;23.90;;;;;;;3.03;55.67;94357.55;1832154;76;21094;-58
2021/03/10 08:51:09;;;;;;;38.28;25.92;;;;;;;3.17;55.68;94357.34;1827844;77;22718;-57
2021/03/10 08:53:37;;;;;;;39.10;25.90;;;;;;;3.27;55.52;94357.80;1825952;77;21505;-57
2021/03/10 08:56:07;;;;;;;31.50;23.38;;;;;;;3.45;56.02;94350.16;1831951;77;21148;-63
2021/03/10 08:58:36;;;;;;;42.93;29.07;;;;;;;3.70;55.62;94356.15;1828441;77;21155;-62
2021/03/10 09:01:13;;;;;;;28.55;22.37;;;;;;;3.86;54.70;94351.45;1832359;77;21251;-61
2021/03/10 09:03:43;;;;;;;30.82;22.73;;;;;;;4.02;54.45;94359.73;1869793;76;21427;-59
2021/03/10 09:06:13;;;;;;;28.15;22.00;;;;;;;4.18;53.51;94356.52;1812113;79;21116;-60
2021/03/10 09:08:41;;;;;;;27.10;19.77;;;;;;;4.36;53.05;94366.50;1831513;77;21397;-61
2021/03/10 09:11:10;;;;;;;26.20;20.05;;;;;;;4.53;52.52;94359.18;1833345;77;21952;-61
2021/03/10 09:13:49;;;;;;;27.95;21.95;;;;;;;4.51;51.89;94358.25;1805261;78;22545;-60
2021/03/10 09:16:19;;;;;;;22.25;16.87;;;;;;;4.41;52.06;94367.98;1789083;78;21244;-63
2021/03/10 09:19:01;;;;;;;29.07;20.60;;;;;;;4.38;51.72;94359.29;1773573;78;21420;-61
2021/03/10 09:21:40;;;;;;;26.23;20.02;;;;;;;4.27;51.72;94354.01;1784193;78;21332;-61
2021/03/10 09:24:10;;;;;;;25.23;19.65;;;;;;;4.17;52.14;94353.63;1777695;80;21120;-61
2021/03/10 09:26:40;;;;;;;32.33;23.38;;;;;;;4.19;52.26;94353.97;1780826;78;21605;-61
2021/03/10 09:29:10;;;;;;;35.28;25.88;;;;;;;4.23;52.40;94356.03;1779578;79;21080;-60
2021/03/10 09:31:54;;;;;;;34.92;24.98;;;;;;;4.28;52.20;94356.91;1778002;79;21237;-60
2021/03/10 09:34:25;;;;;;;31.57;22.58;;;;;;;4.41;52.17;94353.76;1773930;79;21112;-60
2021/03/10 09:36:54;;;;;;;37.13;27.58;;;;;;;4.40;51.90;94354.95;1719861;80;21180;-59
2021/03/10 09:39:26;;;;;;;;;;;;;;;4.35;52.00;94350.56;1781930;78;21679;-62
2021/03/10 09:41:58;;;;;;;30.68;20.70;;;;;;;4.48;52.29;94351.50;1797222;78;20187;-61
2021/03/10 09:44:47;;;;;;;39.80;25.72;;;;;;;4.58;52.71;94350.55;1689312;83;22323;-63
2021/03/10 09:47:25;;;;;;;35.33;23.85;;;;;;;4.63;52.33;94351.41;1718783;81;21183;-60
2021/03/10 09:49:59;;;;;;;31.05;23.12;;;;;;;4.56;52.00;94350.17;1705941;82;21202;-59
2021/03/10 09:52:39;;;;;;;32.78;22.82;;;;;;;4.46;51.97;94350.55;1704829;82;21250;-60
2021/03/10 09:55:20;;;;;;;31.82;24.23;;;;;;;4.53;51.89;94353.16;1872800;75;23273;-59
2021/03/10 09:58:07;;;;;;;29.92;20.95;;;;;;;4.46;52.13;94354.63;1848648;77;21151;-59
2021/03/10 10:00:39;;;;;;;29.77;21.02;;;;;;;4.46;52.53;94353.27;1815609;77;22227;-60
2021/03/10 10:03:08;;;;;;;36.75;25.68;;;;;;;4.51;52.85;94355.53;1793066;78;21233;-60
2021/03/10 10:05:40;;;;;;;33.15;22.00;;;;;;;4.50;52.63;94352.63;1821554;77;21151;-59
2021/03/10 10:08:10;;;;;;;28.75;20.77;;;;;;;4.59;52.49;94355.55;1797626;77;21614;-59
2021/03/10 10:10:41;;;;;;;26.07;21.23;;;;;;;4.73;52.09;94362.10;1843360;77;21052;-58
2021/03/10 10:13:10;;;;;;;25.45;19.23;;;;;;;4.77;51.83;94353.26;1817444;77;22006;-63
2021/03/10 10:15:40;;;;;;;24.98;19.55;;;;;;;4.87;51.46;94348.20;1827047;77;21182;-67
2021/03/10 10:18:12;;;;;;;28.77;19.20;;;;;;;5.03;51.10;94356.44;1814821;79;21198;-60
2021/03/10 10:20:43;;;;;;;23.57;17.62;;;;;;;5.33;50.50;94354.80;1786032;76;21620;-60
2021/03/10 10:23:13;;;;;;;25.57;19.70;;;;;;;5.64;50.31;94356.06;1775424;79;21233;-57
2021/03/10 10:25:43;;;;;;;38.85;26.97;;;;;;;6.00;49.87;94354.06;1774842;78;21382;-59
2021/03/10 10:28:13;;;;;;;29.05;21.62;;;;;;;6.30;50.41;94354.45;1828297;77;21147;-58
2021/03/10 10:30:45;;;;;;;28.07;20.68;;;;;;;6.61;48.94;94358.92;1844425;76;21091;-60
2021/03/10 10:33:13;;;;;;;28.60;20.77;;;;;;;6.63;48.49;94360.62;1815304;78;21564;-65
2021/03/10 10:35:45;;;;;;;32.20;24.63;;;;;;;6.67;48.38;94366.78;1773910;80;21178;-66
2021/03/10 10:38:13;;;;;;;29.05;21.20;;;;;;;6.73;48.08;94355.48;1815134;77;21363;-59
2021/03/10 10:40:42;;;;;;;26.00;19.20;;;;;;;6.78;48.59;94344.79;1818092;77;21166;-60
2021/03/10 10:43:12;;;;;;;22.93;18.45;;;;;;;6.82;47.97;94348.19;1815755;79;21218;-62
2021/03/10 10:45:42;;;;;;;25.12;18.52;;;;;;;6.99;48.55;94350.25;1826325;76;21595;-65
2021/03/10 10:48:11;;;;;;;26.70;19.45;;;;;;;7.04;48.41;94345.02;1788390;79;21620;-62
2021/03/10 10:50:41;;;;;;;23.60;17.65;;;;;;;7.00;47.06;94343.58;1758387;80;21160;-60
2021/03/10 10:53:10;;;;;;;21.55;17.98;;;;;;;6.98;46.99;94333.09;1787148;79;21583;-67
2021/03/10 10:55:40;;;;;;;23.92;16.48;;;;;;;6.98;47.49;94338.56;1748101;81;21195;-65
2021/03/10 10:58:08;;;;;;;27.75;21.50;;;;;;;7.02;47.61;94339.81;1760619;79;21180;-58
2021/03/10 11:00:38;;;;;;;30.65;22.30;;;;;;;6.90;47.90;94333.73;1818634;77;21087;-63
2021/03/10 11:03:09;;;;;;;27.87;20.48;;;;;;;6.74;48.23;94337.27;1819054;77;21278;-61
2021/03/10 11:05:40;;;;;;;29.40;20.85;;;;;;;6.72;47.80;94336.19;1824530;77;21646;-61
2021/03/10 11:08:10;;;;;;;31.82;21.87;;;;;;;6.64;48.62;94334.83;1829858;77;21162;-62
2021/03/10 11:10:38;;;;;;;32.35;23.07;;;;;;;6.61;48.42;94324.76;1814912;79;21096;-61
2021/03/10 11:13:10;;;;;;;28.20;21.57;;;;;;;6.63;49.13;94329.97;1814775;79;21174;-61
2021/03/10 11:15:48;;;;;;;30.62;21.93;;;;;;;6.64;48.24;94321.16;1888663;75;23204;-64
2021/03/10 11:18:35;;;;;;;31.93;22.67;;;;;;;6.52;48.49;94324.02;1857658;77;21134;-60
2021/03/10 11:21:04;;;;;;;28.80;22.17;;;;;;;6.61;49.25;94317.92;1845527;76;21283;-63
2021/03/10 11:23:34;;;;;;;31.62;23.32;;;;;;;6.62;49.17;94315.36;1828684;77;21154;-65
2021/03/10 11:26:03;;;;;;;48.85;28.95;;;;;;;6.55;49.09;94315.56;1830389;77;21163;-65
2021/03/10 11:28:32;;;;;;;43.10;27.17;;;;;;;6.39;49.52;94314.23;1851259;77;21594;-64
2021/03/10 11:31:02;;;;;;;33.63;24.72;;;;;;;6.29;49.33;94312.54;1859788;77;21487;-68
2021/03/10 11:33:32;;;;;;;30.23;21.17;;;;;;;6.16;49.73;94315.83;1854676;77;21158;-63
2021/03/10 11:36:03;;;;;;;29.32;23.07;;;;;;;6.02;49.80;94320.27;1844273;77;21201;-62
2021/03/10 11:38:34;;;;;;;30.25;22.05;;;;;;;5.90;50.48;94312.18;1758363;80;21160;-60
2021/03/10 11:41:02;;;;;;;27.32;20.77;;;;;;;5.75;51.24;94310.95;1779767;80;21139;-62
2021/03/10 11:43:31;;;;;;;26.55;19.98;;;;;;;5.67;51.47;94314.27;1787288;79;21575;-59
2021/03/10 11:46:01;;;;;;;26.57;20.85;;;;;;;5.64;51.57;94312.41;1768124;80;21376;-57
2021/03/10 11:48:29;;;;;;;37.80;26.45;;;;;;;5.57;52.02;94311.22;1781314;80;21199;-59
2021/03/10 11:50:57;;;;;;;33.53;23.77;;;;;;;5.48;52.05;94317.84;1788034;79;21989;-58